Time;durP1;ratioP1;P1;durP2;ratioP2;P2;SDS_P1;SDS_P2;PMS_P1;PMS_P2;Temp;Humidity;BMP_temperature;BMP_pressure;BME280_temperature;BME280_humidity;BME280_pressure;Samples;Min_cycle;Max_cycle;Signal;HPM_P1;HPM_P2
2023/03/15 00:00:53;;;;;;;5.07;2.73;;;5.00;75.50;;;;;;5023079;28;20149;-82
2023/03/15 00:03:19;;;;;;;7.45;3.03;;;4.90;75.90;;;;;;5022532;28;20282;-81
2023/03/15 00:05:47;;;;;;;3.85;2.75;;;4.90;75.80;;;;;;5017692;28;20027;-83
2023/03/15 00:08:14;;;;;;;8.48;3.08;;;4.90;76.20;;;;;;5021261;28;20057;-81
2023/03/15 00:10:44;;;;;;;4.80;3.10;;;4.90;76.30;;;;;;5019747;28;20169;-81
2023/03/15 00:13:11;;;;;;;4.07;2.60;;;4.90;76.70;;;;;;5020516;28;20061;-81
2023/03/15 00:15:50;;;;;;;4.57;3.10;;;4.90;76.90;;;;;;5036256;28;20022;-81
2023/03/15 00:18:18;;;;;;;4.80;3.13;;;4.90;77.10;;;;;;5008288;28;20033;-82
2023/03/15 00:20:46;;;;;;;5.70;2.95;;;4.80;78.00;;;;;;5021397;28;20475;-81
2023/03/15 00:23:12;;;;;;;4.10;2.78;;;4.80;77.60;;;;;;5019373;28;20029;-82
2023/03/15 00:25:38;;;;;;;4.15;2.80;;;4.80;77.60;;;;;;5023717;28;20023;-82
2023/03/15 00:28:05;;;;;;;5.32;3.35;;;4.80;77.90;;;;;;5037792;28;20386;-83
2023/03/15 00:30:31;;;;;;;4.65;3.38;;;4.80;78.20;;;;;;5035386;28;20037;-81
2023/03/15 00:32:57;;;;;;;6.15;3.58;;;4.70;78.40;;;;;;5028851;28;20117;-82
2023/03/15 00:35:24;;;;;;;2.90;1.88;;;4.70;78.60;;;;;;5029112;28;20021;-84
2023/03/15 00:37:54;;;;;;;7.03;3.97;;;4.70;78.70;;;;;;5007680;28;20097;-82
2023/03/15 00:40:21;;;;;;;6.07;3.45;;;4.80;78.70;;;;;;5016184;28;20444;-83
2023/03/15 00:42:49;;;;;;;6.72;3.67;;;4.80;78.80;;;;;;5017401;28;20026;-83
2023/03/15 00:45:16;;;;;;;5.00;3.00;;;4.80;79.10;;;;;;5029973;28;20116;-81
2023/03/15 00:47:42;;;;;;;6.07;3.75;;;4.80;79.10;;;;;;5003373;28;20050;-82
2023/03/15 00:50:09;;;;;;;2.47;2.00;;;4.80;79.10;;;;;;5016934;28;20498;-83
2023/03/15 00:52:36;;;;;;;5.03;3.42;;;4.90;79.10;;;;;;5001844;28;20026;-82
2023/03/15 00:55:03;;;;;;;4.10;2.72;;;4.90;79.20;;;;;;5017487;28;20101;-81
2023/03/15 00:57:31;;;;;;;4.55;3.03;;;4.90;79.40;;;;;;5047039;28;20025;-81
2023/03/15 00:59:57;;;;;;;4.68;2.88;;;4.90;79.40;;;;;;5048857;28;20029;-82
2023/03/15 01:02:23;;;;;;;5.10;3.35;;;4.90;79.20;;;;;;5043558;28;20103;-81
2023/03/15 01:04:50;;;;;;;6.68;3.42;;;5.00;79.20;;;;;;5037209;28;20021;-81
2023/03/15 01:07:16;;;;;;;6.40;3.40;;;5.10;79.20;;;;;;5030574;28;20032;-83
2023/03/15 01:09:43;;;;;;;4.80;3.72;;;5.00;79.00;;;;;;5025755;28;20262;-82
2023/03/15 01:12:09;;;;;;;10.00;4.15;;;5.00;79.20;;;;;;5030748;28;20018;-82
2023/03/15 01:14:36;;;;;;;4.97;3.63;;;5.00;79.20;;;;;;5019908;28;20033;-81
2023/03/15 01:17:02;;;;;;;5.35;2.63;;;5.00;79.30;;;;;;5028733;28;20440;-82
2023/03/15 01:19:31;;;;;;;6.57;3.10;;;5.00;79.40;;;;;;5030860;28;20336;-81
2023/03/15 01:21:57;;;;;;;5.90;3.72;;;5.00;79.60;;;;;;5033402;28;20606;-79
2023/03/15 01:24:23;;;;;;;5.18;2.88;;;5.00;79.60;;;;;;5028158;28;20061;-81
2023/03/15 01:26:49;;;;;;;5.82;3.72;;;5.00;79.80;;;;;;5023193;28;20026;-81
2023/03/15 01:29:16;;;;;;;5.22;4.03;;;5.00;79.80;;;;;;5023127;28;20033;-83
2023/03/15 01:31:42;;;;;;;4.03;2.85;;;5.00;80.10;;;;;;5010754;28;20021;-81
2023/03/15 01:34:09;;;;;;;3.42;2.65;;;5.00;80.10;;;;;;5016220;28;20038;-82
2023/03/15 01:36:35;;;;;;;3.70;2.38;;;5.00;80.10;;;;;;5034245;28;20002;-80
2023/03/15 01:39:00;;;;;;;4.25;3.35;;;5.00;80.30;;;;;;5025809;28;20094;-81
2023/03/15 01:41:26;;;;;;;6.25;3.97;;;5.00;80.50;;;;;;5034071;28;20029;-82
2023/03/15 01:43:52;;;;;;;7.53;4.10;;;5.00;80.70;;;;;;5023600;28;20568;-80
2023/03/15 01:46:33;;;;;;;4.85;3.13;;;5.00;80.70;;;;;;5018897;28;20022;-81
2023/03/15 01:49:13;;;;;;;3.67;2.65;;;5.00;80.80;;;;;;5026978;28;20025;-82
2023/03/15 01:51:50;;;;;;;6.97;3.83;;;5.00;80.80;;;;;;5034960;28;20375;-81
2023/03/15 01:54:22;;;;;;;5.60;4.00;;;5.00;81.00;;;;;;5024152;28;20025;-82
2023/03/15 01:57:00;;;;;;;5.47;4.05;;;5.00;81.20;;;;;;5014582;28;20084;-81
2023/03/15 01:59:36;;;;;;;5.38;3.80;;;5.00;81.40;;;;;;5014581;28;20053;-81
2023/03/15 02:02:03;;;;;;;7.35;3.22;;;5.00;82.10;;;;;;5018023;28;20045;-81
2023/03/15 02:04:45;;;;;;;6.07;3.83;;;5.00;81.70;;;;;;5034505;28;20038;-81
2023/03/15 02:07:14;;;;;;;4.65;3.00;;;5.00;81.80;;;;;;5012841;28;20087;-82
2023/03/15 02:09:50;;;;;;;5.22;3.08;;;5.00;81.90;;;;;;5039508;28;20033;-81
2023/03/15 02:12:17;;;;;;;4.90;3.08;;;5.00;82.10;;;;;;5014501;28;20044;-82
2023/03/15 02:14:44;;;;;;;4.25;3.22;;;5.00;82.20;;;;;;5024359;28;20036;-81
2023/03/15 02:17:10;;;;;;;4.85;2.97;;;5.00;82.20;;;;;;5019624;28;20021;-83
2023/03/15 02:19:41;;;;;;;6.90;4.40;;;5.00;82.90;;;;;;5032656;28;20072;-81
2023/03/15 02:22:32;;;;;;;6.47;3.30;;;5.00;82.40;;;;;;5036923;28;20491;-83
2023/03/15 02:25:28;;;;;;;5.80;2.90;;;5.00;82.30;;;;;;5014508;28;20045;-81
2023/03/15 02:27:54;;;;;;;8.20;3.78;;;5.00;82.50;;;;;;5032748;28;20079;-81
2023/03/15 02:30:21;;;;;;;4.80;3.05;;;5.00;82.50;;;;;;5034577;28;20045;-83
2023/03/15 02:32:48;;;;;;;4.43;3.95;;;5.00;82.70;;;;;;5026616;28;20563;-80
2023/03/15 02:35:27;;;;;;;7.57;3.95;;;5.00;82.80;;;;;;5026547;28;20030;-83
2023/03/15 02:37:53;;;;;;;5.82;4.25;;;5.00;82.80;;;;;;5024875;28;20469;-83
2023/03/15 02:40:21;;;;;;;6.05;4.07;;;4.90;83.00;;;;;;5018038;28;20061;-82
2023/03/15 02:42:52;;;;;;;9.75;3.97;;;5.00;83.20;;;;;;5025913;28;20014;-82
2023/03/15 02:45:19;;;;;;;5.03;2.67;;;4.90;83.20;;;;;;5017704;28;20116;-84
2023/03/15 02:47:47;;;;;;;7.33;4.23;;;4.90;83.20;;;;;;5015922;28;20691;-82
2023/03/15 02:50:13;;;;;;;7.53;3.67;;;4.90;83.20;;;;;;5034342;28;20262;-82
2023/03/15 02:52:39;;;;;;;5.65;3.70;;;4.90;83.40;;;;;;5030963;28;20032;-83
2023/03/15 02:55:06;;;;;;;4.97;3.33;;;4.90;83.50;;;;;;5018653;28;20026;-81
2023/03/15 02:57:32;;;;;;;8.23;3.95;;;4.80;83.50;;;;;;5027457;28;20036;-82
2023/03/15 02:59:59;;;;;;;6.75;3.30;;;4.80;83.70;;;;;;5012988;28;20026;-82
2023/03/15 03:02:25;;;;;;;7.07;4.28;;;4.70;84.00;;;;;;5024456;28;20049;-83
2023/03/15 03:04:51;;;;;;;6.50;4.53;;;4.60;84.20;;;;;;5031986;28;20087;-82
2023/03/15 03:07:29;;;;;;;7.15;3.75;;;4.60;84.50;;;;;;5030826;28;20025;-82
2023/03/15 03:09:55;;;;;;;7.78;4.28;;;4.60;84.60;;;;;;5030637;28;20121;-83
2023/03/15 03:12:21;;;;;;;7.95;3.72;;;4.60;84.90;;;;;;5033332;28;20067;-83
2023/03/15 03:14:47;;;;;;;8.45;3.40;;;4.50;85.10;;;;;;5030983;28;20486;-83
2023/03/15 03:17:13;;;;;;;5.22;3.75;;;4.50;85.20;;;;;;5030260;28;20063;-82
2023/03/15 03:19:39;;;;;;;3.70;2.97;;;4.50;85.40;;;;;;5029630;28;20056;-83
2023/03/15 03:22:05;;;;;;;5.57;3.70;;;4.50;85.30;;;;;;5028979;28;20024;-84
2023/03/15 03:24:32;;;;;;;5.05;3.45;;;4.50;85.20;;;;;;5030945;28;20484;-83
2023/03/15 03:26:59;;;;;;;5.45;3.75;;;4.50;85.30;;;;;;5023207;28;20010;-82
2023/03/15 03:29:25;;;;;;;6.20;4.32;;;4.50;85.40;;;;;;5026370;28;20030;-79
2023/03/15 03:31:51;;;;;;;6.95;4.25;;;4.50;85.50;;;;;;5030840;28;20583;-80
2023/03/15 03:34:18;;;;;;;7.78;4.40;;;4.50;85.60;;;;;;5031868;28;20069;-83
2023/03/15 03:36:44;;;;;;;5.78;3.63;;;4.50;85.70;;;;;;5025782;28;20489;-82
2023/03/15 03:39:11;;;;;;;7.18;4.63;;;4.40;85.80;;;;;;5028361;28;20104;-83
2023/03/15 03:41:36;;;;;;;8.15;4.90;;;4.40;85.80;;;;;;5025128;28;20049;-81
2023/03/15 03:44:02;;;;;;;4.53;3.53;;;4.40;85.90;;;;;;5023886;28;20435;-83
2023/03/15 03:46:28;;;;;;;5.70;3.40;;;4.50;85.80;;;;;;5026315;28;20431;-83
2023/03/15 03:48:54;;;;;;;10.20;4.00;;;4.40;85.70;;;;;;5029511;28;20053;-82
2023/03/15 03:51:20;;;;;;;4.72;3.38;;;4.50;85.80;;;;;;5022759;28;20752;-83
2023/03/15 03:53:46;;;;;;;5.63;4.22;;;4.40;85.80;;;;;;5034047;28;20037;-83
2023/03/15 03:56:12;;;;;;;6.05;4.47;;;4.40;85.80;;;;;;5022923;28;20052;-82
2023/03/15 03:58:38;;;;;;;8.95;4.57;;;4.40;85.90;;;;;;5025354;28;20042;-82
2023/03/15 04:01:04;;;;;;;7.95;5.00;;;4.40;86.00;;;;;;5028238;28;20384;-83
2023/03/15 04:03:30;;;;;;;10.10;5.15;;;4.40;86.10;;;;;;5016976;28;20037;-81
2023/03/15 04:05:58;;;;;;;9.73;4.97;;;4.40;86.20;;;;;;5027342;28;20032;-83
2023/03/15 04:08:25;;;;;;;7.47;4.55;;;4.40;86.30;;;;;;5025930;28;20025;-82
2023/03/15 04:10:56;;;;;;;7.45;3.97;;;4.40;86.40;;;;;;5043244;28;20048;-82
2023/03/15 04:13:23;;;;;;;7.00;3.88;;;4.40;86.30;;;;;;5025591;28;20034;-82
2023/03/15 04:15:50;;;;;;;11.43;4.38;;;4.50;85.90;;;;;;5032390;28;20013;-83
2023/03/15 04:18:16;;;;;;;8.02;5.20;;;4.50;85.80;;;;;;5046224;28;20029;-82
2023/03/15 04:20:48;;;;;;;6.97;4.13;;;4.50;85.80;;;;;;5034319;28;20042;-83
2023/03/15 04:23:20;;;;;;;6.20;4.25;;;4.50;85.60;;;;;;5018678;28;20022;-82
2023/03/15 04:25:50;;;;;;;7.70;4.97;;;4.60;85.30;;;;;;5024033;28;20590;-82
2023/03/15 04:28:17;;;;;;;7.10;4.35;;;4.60;85.20;;;;;;5024676;28;20034;-82
2023/03/15 04:30:44;;;;;;;9.07;4.45;;;4.70;85.30;;;;;;5036290;28;20383;-82
2023/03/15 04:33:10;;;;;;;6.97;4.27;;;4.70;85.10;;;;;;5020638;28;20610;-82
2023/03/15 04:35:37;;;;;;;7.55;6.00;;;4.70;85.10;;;;;;5034130;28;20255;-81
2023/03/15 04:38:04;;;;;;;9.70;5.30;;;4.70;84.60;;;;;;5042041;28;20032;-81
2023/03/15 04:40:33;;;;;;;6.53;4.22;;;4.80;84.60;;;;;;5041557;28;20053;-83
2023/03/15 04:43:06;;;;;;;8.15;4.75;;;4.80;84.70;;;;;;5036619;28;20019;-83
2023/03/15 04:45:32;;;;;;;8.00;5.05;;;4.80;84.60;;;;;;5020000;28;20105;-82
2023/03/15 04:48:00;;;;;;;8.38;4.28;;;4.80;84.40;;;;;;5032960;28;20109;-82
2023/03/15 04:50:27;;;;;;;8.48;5.13;;;4.80;84.10;;;;;;5027447;28;20025;-81
2023/03/15 04:52:53;;;;;;;8.65;5.13;;;4.80;84.30;;;;;;5032007;28;20030;-82
2023/03/15 04:55:19;;;;;;;9.45;5.55;;;4.80;84.30;;;;;;5017980;28;20030;-84
2023/03/15 04:57:45;;;;;;;6.13;4.82;;;4.80;85.20;;;;;;5015953;28;20092;-81
2023/03/15 05:00:11;;;;;;;11.95;5.85;;;4.70;84.60;;;;;;5034398;28;20029;-82
2023/03/15 05:02:40;;;;;;;12.23;5.22;;;4.70;84.70;;;;;;5033354;28;20486;-82
2023/03/15 05:05:10;;;;;;;10.68;4.53;;;4.70;84.60;;;;;;5031508;28;20037;-83
2023/03/15 05:07:37;;;;;;;5.80;3.65;;;4.70;84.60;;;;;;5033085;28;20018;-84
2023/03/15 05:10:05;;;;;;;9.65;5.88;;;4.70;84.50;;;;;;5029879;28;20018;-82
2023/03/15 05:12:30;;;;;;;;;;;4.70;84.50;;;;;;5032862;28;20380;-81
2023/03/15 05:14:56;;;;;;;4.93;3.28;;;4.70;84.00;;;;;;5029709;28;19917;-83
2023/03/15 05:17:22;;;;;;;9.30;3.95;;;4.60;84.10;;;;;;5023138;28;20037;-82
2023/03/15 05:19:49;;;;;;;7.30;4.85;;;4.60;84.20;;;;;;5026353;28;20383;-82
2023/03/15 05:22:18;;;;;;;11.05;5.55;;;4.60;84.10;;;;;;5034538;28;20021;-82
2023/03/15 05:24:44;;;;;;;8.18;5.07;;;4.60;84.30;;;;;;5034564;28;20025;-83
2023/03/15 05:27:12;;;;;;;12.15;5.40;;;4.70;83.90;;;;;;5029937;28;20181;-82
2023/03/15 05:29:38;;;;;;;6.40;4.85;;;4.70;83.70;;;;;;5030656;28;20018;-84
2023/03/15 05:32:04;;;;;;;9.70;5.55;;;4.70;83.50;;;;;;5008582;28;20026;-83
2023/03/15 05:34:31;;;;;;;6.70;4.50;;;4.70;83.50;;;;;;5020467;28;20454;-82
2023/03/15 05:36:57;;;;;;;9.47;5.63;;;4.70;83.20;;;;;;5017890;28;20026;-82
2023/03/15 05:39:23;;;;;;;9.40;5.70;;;4.80;82.90;;;;;;5013941;28;20543;-85
2023/03/15 05:41:49;;;;;;;8.55;6.57;;;4.80;83.00;;;;;;5007709;28;20113;-83
2023/03/15 05:44:15;;;;;;;7.85;5.63;;;4.90;83.00;;;;;;5023758;28;20132;-81
2023/03/15 05:46:42;;;;;;;8.45;5.18;;;4.90;82.60;;;;;;5015841;28;20455;-81
2023/03/15 05:49:08;;;;;;;7.97;4.97;;;4.90;82.20;;;;;;5032538;28;20036;-82
2023/03/15 05:51:34;;;;;;;14.95;5.18;;;4.90;82.20;;;;;;5027192;28;20034;-82
2023/03/15 05:54:00;;;;;;;6.70;5.13;;;5.00;82.20;;;;;;5028692;28;20041;-82
2023/03/15 05:56:26;;;;;;;6.72;5.05;;;5.00;81.70;;;;;;5021166;28;20391;-82
2023/03/15 05:58:52;;;;;;;8.57;4.60;;;5.10;81.40;;;;;;5023096;28;20022;-82
2023/03/15 06:01:17;;;;;;;8.73;5.15;;;5.10;81.50;;;;;;5000751;28;20052;-83
2023/03/15 06:03:43;;;;;;;11.43;5.47;;;5.10;81.70;;;;;;5012976;28;20065;-83
2023/03/15 06:06:09;;;;;;;7.30;5.32;;;5.20;81.50;;;;;;5015702;28;20018;-83
2023/03/15 06:08:37;;;;;;;7.70;5.50;;;5.20;81.30;;;;;;5030245;28;20050;-79
2023/03/15 06:11:03;;;;;;;9.27;4.80;;;5.20;82.00;;;;;;5001641;28;20027;-81
2023/03/15 06:13:29;;;;;;;6.75;5.05;;;5.20;80.80;;;;;;5043196;28;20037;-81
2023/03/15 06:15:54;;;;;;;7.93;4.45;;;5.20;80.90;;;;;;5030948;28;20080;-81
2023/03/15 06:18:20;;;;;;;10.15;4.93;;;5.20;81.10;;;;;;5013455;28;20042;-87
2023/03/15 06:20:46;;;;;;;11.13;4.68;;;5.20;81.20;;;;;;5023650;28;20033;-82
2023/03/15 06:23:12;;;;;;;8.15;4.90;;;5.20;81.10;;;;;;5030915;28;20032;-83
2023/03/15 06:25:38;;;;;;;7.28;4.50;;;5.10;80.80;;;;;;5035158;28;20022;-81
2023/03/15 06:28:04;;;;;;;6.75;4.32;;;5.20;81.90;;;;;;5022396;28;20022;-84
2023/03/15 06:30:30;;;;;;;8.10;5.68;;;5.20;81.60;;;;;;5028078;28;20509;-83
2023/03/15 06:32:56;;;;;;;10.30;5.35;;;5.20;81.60;;;;;;5016132;28;20484;-84
2023/03/15 06:35:22;;;;;;;7.35;4.95;;;5.20;81.40;;;;;;5020878;28;20041;-82
2023/03/15 06:37:48;;;;;;;13.30;5.28;;;5.30;81.50;;;;;;5035952;28;20033;-83
2023/03/15 06:40:13;;;;;;;8.27;5.68;;;5.30;81.50;;;;;;5032011;28;20064;-84
2023/03/15 06:42:40;;;;;;;13.13;5.25;;;5.30;81.30;;;;;;5025537;28;20030;-84
2023/03/15 06:45:08;;;;;;;7.20;5.25;;;5.40;81.30;;;;;;5030213;28;20360;-83
2023/03/15 06:47:34;;;;;;;6.32;4.32;;;5.50;81.20;;;;;;5014845;28;20026;-84
2023/03/15 06:50:00;;;;;;;9.30;5.28;;;5.60;81.00;;;;;;5016995;28;20033;-83
2023/03/15 06:52:27;;;;;;;11.93;6.15;;;5.70;80.90;;;;;;5016543;28;20056;-83
2023/03/15 06:54:52;;;;;;;8.75;6.50;;;5.70;80.60;;;;;;5032384;28;20037;-82
2023/03/15 06:57:18;;;;;;;8.32;5.25;;;5.80;80.50;;;;;;5051066;28;20007;-82
2023/03/15 06:59:44;;;;;;;11.90;5.82;;;5.90;80.60;;;;;;5022509;28;20026;-83
2023/03/15 07:02:15;;;;;;;8.98;6.13;;;5.90;80.40;;;;;;5017502;28;20037;-82
2023/03/15 07:04:43;;;;;;;10.98;6.38;;;6.00;80.10;;;;;;5015693;28;20026;-85
2023/03/15 07:07:09;;;;;;;;;;;6.20;80.20;;;;;;5014905;28;20457;-83
2023/03/15 07:09:35;;;;;;;8.65;6.20;;;6.30;80.20;;;;;;5015320;28;19906;-84
2023/03/15 07:12:01;;;;;;;11.60;6.38;;;6.40;79.40;;;;;;5016738;28;20498;-81
2023/03/15 07:14:27;;;;;;;8.70;6.32;;;6.60;78.60;;;;;;5015892;28;20395;-82
2023/03/15 07:16:53;;;;;;;8.82;5.70;;;6.60;78.00;;;;;;5019474;28;20033;-84
2023/03/15 07:19:19;;;;;;;10.32;6.88;;;6.80;77.50;;;;;;5034975;28;20456;-84
2023/03/15 07:21:45;;;;;;;8.95;6.40;;;7.00;77.80;;;;;;5009159;28;20124;-83
2023/03/15 07:24:11;;;;;;;7.93;5.28;;;7.20;77.00;;;;;;5028874;28;20050;-82
2023/03/15 07:26:37;;;;;;;14.63;7.68;;;7.40;76.50;;;;;;5025837;28;20053;-83
2023/03/15 07:29:03;;;;;;;10.43;6.53;;;7.50;76.50;;;;;;5019495;28;20025;-83
2023/03/15 07:31:29;;;;;;;10.55;5.93;;;7.50;75.30;;;;;;5037818;28;20068;-83
2023/03/15 07:33:55;;;;;;;9.15;5.22;;;7.50;76.00;;;;;;5018253;28;20113;-83
2023/03/15 07:36:21;;;;;;;12.55;6.35;;;7.50;75.10;;;;;;5033791;28;20054;-83
2023/03/15 07:38:47;;;;;;;9.60;6.03;;;7.50;75.40;;;;;;5017007;28;20030;-84
2023/03/15 07:41:13;;;;;;;9.43;6.40;;;7.50;74.90;;;;;;5033397;28;20033;-83
2023/03/15 07:43:39;;;;;;;11.98;8.38;;;7.70;75.40;;;;;;5017423;28;20037;-84
2023/03/15 07:46:06;;;;;;;8.98;6.60;;;8.20;75.50;;;;;;5018726;28;20455;-83
2023/03/15 07:48:32;;;;;;;9.83;6.03;;;9.00;73.10;;;;;;5016438;28;20123;-83
2023/03/15 07:50:58;;;;;;;10.85;6.95;;;9.70;69.50;;;;;;5018522;28;20108;-82
2023/03/15 07:53:24;;;;;;;11.00;6.35;;;9.80;68.30;;;;;;5019083;28;20038;-83
2023/03/15 07:55:50;;;;;;;9.88;6.43;;;9.80;68.00;;;;;;5028053;28;20492;-83
2023/03/15 07:58:16;;;;;;;9.98;6.80;;;9.80;68.50;;;;;;5033960;28;20429;-84
2023/03/15 08:00:54;;;;;;;9.23;6.85;;;9.60;67.60;;;;;;5027106;28;20037;-82
2023/03/15 08:03:20;;;;;;;11.70;7.63;;;9.30;68.40;;;;;;5042368;28;20095;-83
2023/03/15 08:05:46;;;;;;;12.20;7.57;;;9.10;69.30;;;;;;5028890;28;20022;-85
2023/03/15 08:08:12;;;;;;;9.93;7.10;;;9.10;69.70;;;;;;5020630;28;20045;-83
2023/03/15 08:10:47;;;;;;;7.03;4.65;;;9.00;69.90;;;;;;5016278;28;20022;-83
2023/03/15 08:13:13;;;;;;;12.20;6.95;;;8.80;70.20;;;;;;5015108;28;20037;-84
2023/03/15 08:15:45;;;;;;;9.88;7.57;;;8.60;71.20;;;;;;5016123;28;20022;-82
2023/03/15 08:18:11;;;;;;;10.50;8.00;;;8.40;71.80;;;;;;5034636;28;20080;-82
2023/03/15 08:20:37;;;;;;;11.70;7.05;;;8.50;72.00;;;;;;5029785;28;20033;-84
2023/03/15 08:23:03;;;;;;;11.10;8.20;;;8.60;71.50;;;;;;5013919;28;20018;-82
2023/03/15 08:25:39;;;;;;;8.63;6.10;;;8.40;72.00;;;;;;5019728;28;20034;-82
2023/03/15 08:28:05;;;;;;;9.05;6.63;;;8.40;72.00;;;;;;5033434;28;20079;-83
2023/03/15 08:30:32;;;;;;;9.45;8.07;;;8.40;72.60;;;;;;5032663;28;20030;-83
2023/03/15 08:33:01;;;;;;;9.05;5.50;;;8.60;73.10;;;;;;5016734;28;20150;-82
2023/03/15 08:35:27;;;;;;;11.55;6.20;;;8.70;72.00;;;;;;5033059;28;20026;-82
2023/03/15 08:37:53;;;;;;;9.93;6.78;;;8.70;72.50;;;;;;5033901;28;20073;-84
2023/03/15 08:40:25;;;;;;;11.93;6.18;;;8.70;72.00;;;;;;5022082;28;20033;-82
2023/03/15 08:42:52;;;;;;;14.75;7.38;;;8.90;72.20;;;;;;5030263;28;20041;-82
2023/03/15 08:45:19;;;;;;;9.63;5.45;;;8.90;72.30;;;;;;5029462;28;20026;-83
2023/03/15 08:47:45;;;;;;;13.25;6.60;;;8.70;71.60;;;;;;5024711;28;20045;-84
2023/03/15 08:50:13;;;;;;;13.50;8.18;;;8.40;72.90;;;;;;5021713;28;20100;-84
2023/03/15 08:52:43;;;;;;;11.32;7.20;;;8.30;73.40;;;;;;5036356;28;20037;-83
2023/03/15 08:55:13;;;;;;;15.23;8.35;;;8.50;73.60;;;;;;5022635;28;20022;-83
2023/03/15 08:57:39;;;;;;;12.60;8.95;;;8.30;74.10;;;;;;5042059;28;20022;-83
2023/03/15 09:00:14;;;;;;;11.80;8.57;;;8.40;75.10;;;;;;5013851;28;20026;-85
2023/03/15 09:02:39;;;;;;;15.25;8.77;;;8.40;74.20;;;;;;5039473;28;20045;-82
2023/03/15 09:05:06;;;;;;;10.57;7.07;;;8.40;74.80;;;;;;5021316;28;20022;-82
2023/03/15 09:07:32;;;;;;;19.17;8.77;;;8.40;74.30;;;;;;5017299;28;20025;-84
2023/03/15 09:09:58;;;;;;;14.35;8.68;;;8.20;75.10;;;;;;5034029;28;20390;-83
2023/03/15 09:12:24;;;;;;;11.57;7.65;;;8.30;75.20;;;;;;5017692;28;20018;-82
2023/03/15 09:14:50;;;;;;;9.98;7.20;;;8.20;75.60;;;;;;5032588;28;20087;-81
2023/03/15 09:17:16;;;;;;;11.73;7.55;;;8.20;75.60;;;;;;5018461;28;20026;-84
2023/03/15 09:19:42;;;;;;;16.40;8.43;;;8.30;75.90;;;;;;5016725;28;20391;-83
2023/03/15 09:22:08;;;;;;;8.05;6.45;;;8.30;75.70;;;;;;5016942;28;20018;-85
2023/03/15 09:24:33;;;;;;;13.40;8.23;;;8.30;75.70;;;;;;5017085;28;20026;-82
2023/03/15 09:26:59;;;;;;;12.02;8.40;;;8.10;76.40;;;;;;5020665;28;20026;-84
2023/03/15 09:29:25;;;;;;;15.85;8.45;;;8.10;76.90;;;;;;5021183;28;20041;-82
2023/03/15 09:31:51;;;;;;;14.48;9.18;;;8.10;77.20;;;;;;5042160;28;20032;-85
2023/03/15 09:34:17;;;;;;;20.05;9.25;;;8.20;77.20;;;;;;5049689;28;20026;-85
2023/03/15 09:36:43;;;;;;;13.38;10.00;;;8.40;76.80;;;;;;5028624;28;20056;-83
2023/03/15 09:39:09;;;;;;;10.55;7.03;;;8.30;76.50;;;;;;5024615;28;20025;-83
2023/03/15 09:41:47;;;;;;;14.20;7.82;;;8.30;76.80;;;;;;5016189;28;20071;-85
2023/03/15 09:44:33;;;;;;;9.95;7.40;;;8.10;77.20;;;;;;5031816;28;20483;-83
2023/03/15 09:47:14;;;;;;;13.57;7.95;;;8.10;77.50;;;;;;5031109;28;20026;-83
2023/03/15 09:49:55;;;;;;;13.75;8.35;;;8.10;77.70;;;;;;5017013;28;20020;-84
2023/03/15 09:52:50;;;;;;;16.70;7.18;;;8.10;77.90;;;;;;5017076;28;20026;-83
2023/03/15 09:55:24;;;;;;;10.55;7.00;;;8.10;78.00;;;;;;5005224;28;20030;-83
2023/03/15 09:58:02;;;;;;;14.75;8.20;;;8.10;78.10;;;;;;5016538;28;20060;-84
2023/03/15 10:00:50;;;;;;;13.88;7.53;;;8.10;78.30;;;;;;5020358;28;20045;-83
2023/03/15 10:03:39;;;;;;;12.40;8.18;;;8.20;77.80;;;;;;5026313;28;20034;-82
2023/03/15 10:06:15;;;;;;;10.25;7.38;;;8.20;77.90;;;;;;5016690;28;20030;-83
2023/03/15 10:08:41;;;;;;;14.68;9.68;;;8.30;78.10;;;;;;5003989;28;20116;-85
2023/03/15 10:11:45;;;;;;;12.07;6.93;;;8.50;78.00;;;;;;5020286;28;20387;-83
2023/03/15 10:14:49;;;;;;;12.77;9.30;;;8.80;76.90;;;;;;5008585;28;20145;-85
2023/03/15 10:17:28;;;;;;;12.18;8.32;;;8.90;76.80;;;;;;4958873;29;20079;-84
2023/03/15 10:20:02;;;;;;;13.45;8.80;;;9.40;76.20;;;;;;5010843;28;20428;-84
2023/03/15 10:22:44;;;;;;;12.10;8.45;;;9.70;75.10;;;;;;5013927;28;20021;-82
2023/03/15 10:25:28;;;;;;;12.25;8.63;;;10.10;73.80;;;;;;5014508;28;20030;-83
2023/03/15 10:28:08;;;;;;;13.93;8.93;;;10.30;73.50;;;;;;5015092;28;20037;-84
2023/03/15 10:30:37;;;;;;;10.45;6.95;;;10.50;72.30;;;;;;5030462;28;20475;-82
2023/03/15 10:33:11;;;;;;;14.40;8.32;;;10.30;72.20;;;;;;5014275;28;20041;-84
2023/03/15 10:35:38;;;;;;;10.27;6.00;;;10.20;72.50;;;;;;5016589;28;20021;-84
2023/03/15 10:38:16;;;;;;;8.38;5.25;;;10.30;72.50;;;;;;5033761;28;20067;-83
2023/03/15 10:40:59;;;;;;;8.93;5.82;;;10.40;72.10;;;;;;5027064;28;20065;-81
2023/03/15 10:43:36;;;;;;;11.93;6.63;;;10.40;71.20;;;;;;5002902;28;20396;-83
2023/03/15 10:46:04;;;;;;;;;;;10.10;71.90;;;;;;5014178;28;20078;-82
2023/03/15 10:48:33;;;;;;;;;;;10.00;72.80;;;;;;5016407;28;20329;-82
2023/03/15 10:51:27;;;;;;;10.15;7.30;;;9.80;72.70;;;;;;5015951;28;19905;-83
2023/03/15 10:53:55;;;;;;;10.98;7.28;;;9.60;74.20;;;;;;5017000;28;20046;-83
2023/03/15 10:56:25;;;;;;;10.02;7.43;;;9.50;74.20;;;;;;5022258;28;20018;-84
2023/03/15 10:58:53;;;;;;;11.88;8.02;;;9.60;74.10;;;;;;5020738;28;20423;-83
2023/03/15 11:01:35;;;;;;;11.27;8.02;;;9.70;74.00;;;;;;5021808;28;20049;-82
2023/03/15 11:04:20;;;;;;;9.68;7.85;;;9.70;73.80;;;;;;5021151;28;20024;-83
2023/03/15 11:07:03;;;;;;;9.43;6.85;;;9.90;74.00;;;;;;5018220;28;20080;-83
2023/03/15 11:09:40;;;;;;;7.97;6.75;;;10.10;72.60;;;;;;5016306;28;20100;-83
2023/03/15 11:12:17;;;;;;;;;;;10.10;72.20;;;;;;5003101;28;20436;-83
2023/03/15 11:14:46;;;;;;;10.27;5.85;;;9.90;72.50;;;;;;5015278;28;19913;-84
2023/03/15 11:17:22;;;;;;;9.10;7.00;;;9.70;73.00;;;;;;5012217;28;20094;-83
2023/03/15 11:20:22;;;;;;;8.65;6.90;;;9.50;73.90;;;;;;5010972;28;20387;-83
2023/03/15 11:22:46;;;;;;;10.90;8.75;;;9.40;74.50;;;;;;5021590;28;20041;-83
2023/03/15 11:25:17;;;;;;;10.20;6.70;;;9.60;74.70;;;;;;5014661;28;20021;-84
2023/03/15 11:27:45;;;;;;;8.77;6.38;;;9.60;73.90;;;;;;5014699;28;20387;-82
2023/03/15 11:30:16;;;;;;;9.93;6.50;;;9.50;74.80;;;;;;5016634;28;20480;-83
2023/03/15 11:32:46;;;;;;;9.85;7.63;;;9.50;74.90;;;;;;5019812;28;20100;-84
2023/03/15 11:35:21;;;;;;;13.20;7.55;;;9.40;74.90;;;;;;5021456;28;20038;-83
2023/03/15 11:38:02;;;;;;;9.02;7.50;;;9.40;74.70;;;;;;4998207;28;20029;-84
2023/03/15 11:40:41;;;;;;;12.90;6.90;;;9.30;74.90;;;;;;5014816;28;20030;-82
2023/03/15 11:43:38;;;;;;;8.68;6.53;;;9.20;75.50;;;;;;5011850;28;20024;-83
2023/03/15 11:46:13;;;;;;;8.80;6.23;;;9.30;75.80;;;;;;5011031;28;20026;-83
2023/03/15 11:48:55;;;;;;;12.00;7.03;;;9.40;75.30;;;;;;5016546;28;20030;-83
2023/03/15 11:51:21;;;;;;;11.75;8.52;;;9.50;75.20;;;;;;5014404;28;20040;-83
2023/03/15 11:54:15;;;;;;;12.35;7.63;;;9.50;75.30;;;;;;5014312;28;20042;-83
2023/03/15 11:56:48;;;;;;;11.35;7.78;;;9.70;75.60;;;;;;5015314;28;20014;-81
2023/03/15 11:59:26;;;;;;;10.65;7.63;;;9.50;74.90;;;;;;5020597;28;20022;-80
2023/03/15 12:02:13;;;;;;;15.27;8.45;;;9.30;75.60;;;;;;5005146;28;20038;-82
2023/03/15 12:04:45;;;;;;;9.77;6.95;;;9.20;76.50;;;;;;5015037;28;20018;-82
2023/03/15 12:07:22;;;;;;;12.05;9.23;;;9.20;76.70;;;;;;5032967;28;20022;-83
2023/03/15 12:09:51;;;;;;;;;;;9.10;77.10;;;;;;5020211;28;20030;-83
2023/03/15 12:12:23;;;;;;;9.82;7.55;;;9.10;77.00;;;;;;5019728;28;20012;-82
2023/03/15 12:15:34;;;;;;;14.85;8.02;;;9.20;76.90;;;;;;5035008;28;20041;-82
2023/03/15 12:18:14;;;;;;;15.38;8.30;;;9.10;76.80;;;;;;5037991;28;20041;-83
2023/03/15 12:20:43;;;;;;;11.32;7.80;;;9.00;77.30;;;;;;5019932;28;20030;-82
2023/03/15 12:23:18;;;;;;;11.77;7.93;;;8.90;77.50;;;;;;5020538;28;20073;-84
2023/03/15 12:25:50;;;;;;;15.45;9.52;;;8.90;77.70;;;;;;5034762;28;20045;-84
2023/03/15 12:28:50;;;;;;;;;;;;;;;;;;;;;
2023/03/15 12:31:20;;;;;;;8.30;5.72;;;8.90;77.90;;;;;;5018342;28;20197;-83
2023/03/15 12:33:51;;;;;;;10.60;8.13;;;8.80;77.80;;;;;;5025146;28;20103;-83
2023/03/15 12:36:39;;;;;;;12.18;8.82;;;8.80;78.10;;;;;;5022602;28;20086;-83
2023/03/15 12:39:17;;;;;;;13.50;9.13;;;8.80;77.80;;;;;;5036913;28;20014;-82
2023/03/15 12:41:48;;;;;;;15.95;9.18;;;8.70;78.00;;;;;;5020806;28;20065;-83
2023/03/15 12:44:31;;;;;;;13.52;8.23;;;8.70;78.20;;;;;;5021693;28;20018;-82
2023/03/15 12:46:59;;;;;;;11.48;6.88;;;8.70;78.00;;;;;;5024857;28;20021;-81
2023/03/15 12:49:25;;;;;;;7.75;5.63;;;8.60;78.10;;;;;;5020154;28;20022;-83
2023/03/15 12:52:04;;;;;;;13.65;7.00;;;8.50;78.30;;;;;;5022428;28;20048;-84
2023/03/15 12:54:41;;;;;;;8.25;6.72;;;8.40;78.90;;;;;;5022832;28;20097;-84
2023/03/15 12:57:19;;;;;;;10.20;6.97;;;8.30;79.10;;;;;;5038722;28;20026;-82
2023/03/15 12:59:57;;;;;;;13.38;8.65;;;8.30;79.70;;;;;;5024873;28;20384;-81
2023/03/15 13:02:43;;;;;;;11.50;8.32;;;8.30;80.00;;;;;;5025794;28;20034;-82
2023/03/15 13:05:09;;;;;;;11.48;7.45;;;8.40;79.90;;;;;;5028799;28;20033;-82
2023/03/15 13:07:51;;;;;;;10.77;7.00;;;8.40;79.60;;;;;;5029310;28;20069;-81
2023/03/15 13:10:26;;;;;;;12.25;7.75;;;8.40;79.40;;;;;;5017531;28;20093;-82